Big Rock, VA (24603)

7:59 PM EDT on August 04, 2015 (GMT -0400)
Upper Chloe Road | | Change Station
CLOSE
Current Station
Personal Weather Station
Location: Pikeville, KY
Elevation: 758 ft
Nearby Weather Stations

Elev 758 ft 37.45 °N, 82.48 °W | Updated 26 seconds ago

Partly Cloudy
Partly Cloudy
71.4 °F
Feels Like 71.4 °F
N
0.0
Wind Variable Wind from South
Gusts 3.7 mph

Today
High -- | Low -- °F
--% Chance of Precip.
Yesterday
High -- | Low -- °F
Precip. -- in
6:35 AM 8:33 PM
Waning Gibbous, 73% visible
Pressure 30.11 in
Visibility 10.0 miles
Clouds Clear
Dew Point 71 °F
Humidity 98%
Rainfall 0.54 in
Snow Depth Not available.
UV 0 out of 12
Pollen 5.40 out of 12
Air Quality Not available.
Flu Activity Not available.
METAR KJFZ 042335Z AUTO 00000KT 10SM CLR 22/19 A3011 RMK AO2 T02170189

More Conditions Fewer Conditions

Pressure 30.11 in
Visibility 10.0 miles
Clouds Clear
Dew Point 71 °F
Humidity 98%
Rainfall 0.54 in
Snow Depth Not available.
UV 0 out of 12
Pollen 5.40 out of 12
Air Quality Not available.
Flu Activity Not available.
METAR KJFZ 042335Z AUTO 00000KT 10SM CLR 22/19 A3011 RMK AO2 T02170189

More Conditions Fewer Conditions

10-Day Weather Forecast

×

Almanac

Astronomy

Aug. 04, 2015 Rise Set
Actual Time
Civil Twilight
Nautical Twilight
Astronomical Twilight
Moon
Length of Visible Light
Length of Day
Tomorrow will be .
, % of the Moon is Illuminated

Today's Extremes

State Highs State Lows

Community

WunderPhotos

Upload Photos

1,844,023 photos uploaded!

WunderBlogs® & News

Nearby

Air Quality

  Air Quality AQ Index Pollutant
Not available.

Snow Depth

Station Depth Elevation

Earthquake Activity

City Distance Mag. Time & Date
Minimum magnitude displayed is 2.5.

Coastal Water Temperatures

Place Temperature

Stations

Nearby Weather Stations

Station Location Temp. Windchill Dew Point Humidity Wind Precip. Elev Updated Type